Time;durP1;ratioP1;P1;durP2;ratioP2;P2;SDS_P1;SDS_P2;PMS_P1;PMS_P2;Temp;Humidity;BMP_temperature;BMP_pressure;BME280_temperature;BME280_humidity;BME280_pressure;Samples;Min_cycle;Max_cycle;Signal;HPM_P1;HPM_P2
2021/10/12 00:01:36;;;;;;;21.27;16.43;;;;;;;10.31;100.00;96941.00;5035522;28;20306;-53
2021/10/12 00:04:04;;;;;;;21.67;16.60;;;;;;;10.73;100.00;96942.72;5043855;28;20076;-59
2021/10/12 00:06:33;;;;;;;21.70;16.43;;;;;;;10.48;100.00;96942.19;5042265;28;20452;-57
2021/10/12 00:09:02;;;;;;;21.93;16.73;;;;;;;10.35;100.00;96942.41;5040849;28;20072;-54
2021/10/12 00:11:30;;;;;;;23.03;16.80;;;;;;;10.43;100.00;96947.03;5045685;28;20511;-57
2021/10/12 00:14:00;;;;;;;22.50;16.73;;;;;;;10.49;100.00;96943.03;5036733;28;20064;-56
2021/10/12 00:16:29;;;;;;;21.40;16.30;;;;;;;10.69;100.00;96950.88;5023056;28;20053;-54
2021/10/12 00:18:57;;;;;;;22.77;16.77;;;;;;;10.47;100.00;96951.09;5033116;28;20071;-53
2021/10/12 00:21:26;;;;;;;22.57;16.77;;;;;;;10.75;100.00;96946.88;5042895;28;20076;-56
2021/10/12 00:23:54;;;;;;;23.27;16.90;;;;;;;10.69;100.00;96953.53;5042333;28;20076;-57
2021/10/12 00:26:23;;;;;;;23.33;16.87;;;;;;;10.40;100.00;96950.78;5044469;28;20103;-56
2021/10/12 00:28:51;;;;;;;23.47;16.90;;;;;;;10.55;100.00;96958.31;5029751;28;20057;-59
2021/10/12 00:31:21;;;;;;;23.80;17.03;;;;;;;10.58;100.00;96961.53;5026878;28;20563;-59
2021/10/12 00:33:49;;;;;;;23.27;17.05;;;;;;;10.77;100.00;96954.66;5016666;28;20434;-55
2021/10/12 00:36:18;;;;;;;24.30;17.40;;;;;;;10.68;100.00;96962.41;5026351;28;20100;-56
2021/10/12 00:38:46;;;;;;;24.57;17.23;;;;;;;10.80;100.00;96960.50;5040255;28;20422;-56
2021/10/12 00:41:15;;;;;;;24.20;17.00;;;;;;;10.65;100.00;96956.56;5029041;28;20072;-55
2021/10/12 00:43:44;;;;;;;23.43;16.83;;;;;;;10.79;100.00;96947.47;5022734;28;20076;-55
2021/10/12 00:46:12;;;;;;;23.97;17.03;;;;;;;10.76;100.00;96950.34;5030049;28;20072;-56
2021/10/12 00:48:42;;;;;;;24.30;17.07;;;;;;;11.10;100.00;96942.97;5038059;28;20077;-57
2021/10/12 00:51:11;;;;;;;23.80;16.90;;;;;;;10.88;100.00;96946.66;5019699;28;20576;-58
2021/10/12 00:53:40;;;;;;;25.20;17.40;;;;;;;11.01;100.00;96944.63;5021739;28;20074;-57
2021/10/12 00:56:11;;;;;;;27.03;18.07;;;;;;;10.49;100.00;96938.59;5016590;28;20084;-59
2021/10/12 00:58:41;;;;;;;27.70;18.27;;;;;;;10.48;100.00;96942.19;5018828;28;20520;-56
2021/10/12 01:01:13;;;;;;;27.80;18.40;;;;;;;10.62;100.00;96935.72;5015242;28;20083;-54
2021/10/12 01:03:43;;;;;;;27.33;18.60;;;;;;;10.50;100.00;96935.00;5030339;28;20068;-56
2021/10/12 01:06:11;;;;;;;26.17;17.88;;;;;;;10.71;100.00;96931.47;5041937;28;20088;-57
2021/10/12 01:08:40;;;;;;;27.53;18.20;;;;;;;10.71;100.00;96934.94;5042219;28;20087;-54
2021/10/12 01:11:09;;;;;;;27.47;18.37;;;;;;;10.89;100.00;96927.22;5027672;28;20049;-55
2021/10/12 01:13:38;;;;;;;27.87;18.50;;;;;;;10.91;100.00;96920.00;5036068;28;20063;-57
2021/10/12 01:16:07;;;;;;;27.67;18.23;;;;;;;10.68;100.00;96920.22;5034109;28;20064;-58
2021/10/12 01:18:36;;;;;;;27.43;18.03;;;;;;;10.34;100.00;96917.03;5037508;28;20084;-57
2021/10/12 01:21:06;;;;;;;28.03;18.40;;;;;;;10.43;100.00;96918.88;5020342;28;20069;-57
2021/10/12 01:23:35;;;;;;;27.52;18.45;;;;;;;10.37;100.00;96910.66;5018768;28;20093;-56
2021/10/12 01:26:03;;;;;;;25.90;17.57;;;;;;;10.42;100.00;96911.91;5025741;28;20065;-57
2021/10/12 01:28:32;;;;;;;24.73;17.33;;;;;;;10.15;100.00;96907.19;5027299;28;20079;-57
2021/10/12 01:31:00;;;;;;;25.00;17.30;;;;;;;10.28;100.00;96911.44;5029558;28;20115;-56
2021/10/12 01:33:29;;;;;;;25.50;17.60;;;;;;;10.31;100.00;96908.53;5038739;28;20069;-56
2021/10/12 01:35:57;;;;;;;25.67;17.93;;;;;;;10.29;100.00;96905.19;5023261;28;20074;-54
2021/10/12 01:38:32;;;;;;;26.07;17.70;;;;;;;10.18;100.00;96898.19;5041768;28;20068;-54
2021/10/12 01:41:00;;;;;;;26.53;17.87;;;;;;;10.01;100.00;96891.69;5027624;28;20100;-58
2021/10/12 01:43:29;;;;;;;26.00;17.73;;;;;;;10.38;100.00;96892.06;5024705;28;20061;-56
2021/10/12 01:45:59;;;;;;;26.67;17.77;;;;;;;10.32;100.00;96886.47;5018550;28;20069;-55
2021/10/12 01:48:27;;;;;;;;;;;;;;;10.30;100.00;96889.25;5024258;28;20069;-56
2021/10/12 01:50:56;;;;;;;26.90;18.00;;;;;;;9.86;100.00;96891.22;5029602;28;19957;-58
2021/10/12 01:53:24;;;;;;;26.13;18.07;;;;;;;10.12;100.00;96891.66;5040437;28;20064;-54
2021/10/12 01:55:54;;;;;;;25.93;17.73;;;;;;;10.38;100.00;96886.78;5037566;28;20068;-58
2021/10/12 01:58:23;;;;;;;25.35;17.50;;;;;;;10.39;100.00;96885.84;5031351;28;20075;-57
2021/10/12 02:00:51;;;;;;;26.73;17.97;;;;;;;10.07;100.00;96877.19;5026090;28;20083;-55
2021/10/12 02:03:20;;;;;;;26.97;18.27;;;;;;;10.13;100.00;96877.50;5043572;28;20084;-58
2021/10/12 02:05:48;;;;;;;26.93;18.27;;;;;;;10.29;100.00;96878.84;5043801;28;20469;-55
2021/10/12 02:08:17;;;;;;;26.93;17.97;;;;;;;9.95;100.00;96872.00;5046116;28;20083;-55
2021/10/12 02:10:45;;;;;;;28.67;18.73;;;;;;;9.95;100.00;96869.38;5039189;28;20076;-55
2021/10/12 02:13:15;;;;;;;28.97;17.23;;;;;;;10.15;100.00;96869.44;5029808;28;20092;-55
2021/10/12 02:15:44;;;;;;;0.45;0.45;;;;;;;10.26;100.00;96863.31;5029147;28;20045;-58
2021/10/12 02:18:12;;;;;;;22.10;15.17;;;;;;;10.16;100.00;96866.69;5042022;28;20083;-57
2021/10/12 02:20:41;;;;;;;4.80;3.10;;;;;;;10.09;100.00;96860.28;5043180;28;20453;-59
2021/10/12 02:23:09;;;;;;;0.67;0.67;;;;;;;10.32;100.00;96865.38;5045518;28;20500;-54
2021/10/12 02:25:38;;;;;;;0.83;0.83;;;;;;;10.08;100.00;96863.03;5023401;28;20084;-54
2021/10/12 02:28:06;;;;;;;0.80;0.80;;;;;;;10.26;100.00;96858.03;5019713;28;20083;-57
2021/10/12 02:30:37;;;;;;;0.83;0.83;;;;;;;10.39;100.00;96862.13;5025042;28;20601;-57
2021/10/12 02:33:05;;;;;;;0.47;0.47;;;;;;;10.17;100.00;96864.88;5037289;28;20093;-58
2021/10/12 02:35:34;;;;;;;1.00;1.00;;;;;;;10.24;100.00;96866.03;5021652;28;20074;-59
2021/10/12 02:38:03;;;;;;;1.03;1.00;;;;;;;10.03;100.00;96866.06;5015528;28;20080;-59
2021/10/12 02:40:31;;;;;;;1.27;1.17;;;;;;;10.04;100.00;96859.81;5020809;28;20061;-57
2021/10/12 02:43:00;;;;;;;2.20;2.00;;;;;;;9.99;100.00;96862.03;5019513;28;20073;-59
2021/10/12 02:45:28;;;;;;;1.77;1.67;;;;;;;10.33;100.00;96857.38;5020896;28;20076;-58
2021/10/12 02:47:58;;;;;;;1.43;1.33;;;;;;;10.23;100.00;96852.03;5025172;28;20084;-56
2021/10/12 02:50:27;;;;;;;0.55;0.55;;;;;;;10.27;100.00;96847.34;5024056;28;20073;-58
2021/10/12 02:52:55;;;;;;;1.33;1.23;;;;;;;10.17;100.00;96843.81;5037850;28;20068;-58
2021/10/12 02:55:23;;;;;;;3.67;3.37;;;;;;;10.09;100.00;96841.00;5043882;28;20064;-58
2021/10/12 02:57:52;;;;;;;1.77;1.67;;;;;;;9.97;100.00;96838.44;5038653;28;20065;-57
2021/10/12 03:00:20;;;;;;;1.50;1.40;;;;;;;10.23;100.00;96833.56;5036780;28;20161;-58
2021/10/12 03:02:49;;;;;;;1.73;1.63;;;;;;;10.07;100.00;96830.59;5023021;28;20069;-53
2021/10/12 03:05:19;;;;;;;1.60;1.50;;;;;;;9.82;100.00;96829.22;5020717;28;20072;-56
2021/10/12 03:07:47;;;;;;;0.55;0.55;;;;;;;9.81;100.00;96832.84;5041237;28;20073;-58
2021/10/12 03:10:16;;;;;;;2.37;2.17;;;;;;;9.78;100.00;96834.91;5046473;28;20087;-60
2021/10/12 03:12:44;;;;;;;3.67;3.40;;;;;;;9.78;100.00;96822.56;5045834;28;20065;-60
2021/10/12 03:15:13;;;;;;;2.43;2.23;;;;;;;9.92;100.00;96816.09;5049353;28;20089;-56
2021/10/12 03:17:41;;;;;;;4.40;4.03;;;;;;;9.79;100.00;96824.22;5047526;28;20103;-57
2021/10/12 03:20:10;;;;;;;3.90;3.57;;;;;;;9.96;100.00;96812.25;5029354;28;20092;-57
2021/10/12 03:22:40;;;;;;;5.50;5.03;;;;;;;9.89;100.00;96798.75;5040165;28;20469;-59
2021/10/12 03:25:09;;;;;;;3.58;3.33;;;;;;;9.85;100.00;96804.44;5045381;28;20088;-55
2021/10/12 03:27:38;;;;;;;5.53;5.07;;;;;;;9.86;100.00;96806.09;5038199;28;20065;-57
2021/10/12 03:30:08;;;;;;;6.93;6.33;;;;;;;9.99;100.00;96801.44;5020250;28;20080;-58
2021/10/12 03:32:36;;;;;;;9.32;8.52;;;;;;;9.84;100.00;96786.94;5030808;28;20543;-58
2021/10/12 03:35:06;;;;;;;10.30;9.37;;;;;;;9.67;100.00;96791.88;5032619;28;20539;-59
2021/10/12 03:37:34;;;;;;;8.45;7.75;;;;;;;9.82;100.00;96781.81;5029865;28;20494;-56
2021/10/12 03:40:05;;;;;;;10.00;9.07;;;;;;;9.83;100.00;96777.38;5025664;28;20068;-57
2021/10/12 03:42:33;;;;;;;;;;;;;;;9.99;100.00;96773.28;5027704;28;20073;-58
2021/10/12 03:45:01;;;;;;;6.90;6.27;;;;;;;10.06;100.00;96770.97;5019686;28;21599;-51
2021/10/12 03:47:30;;;;;;;7.97;7.23;;;;;;;9.89;100.00;96782.13;5025429;28;20573;-59
2021/10/12 03:49:58;;;;;;;9.80;8.90;;;;;;;10.12;100.00;96777.50;5028515;28;20544;-59
2021/10/12 03:52:27;;;;;;;12.23;11.10;;;;;;;10.37;100.00;96770.94;5027852;28;20540;-56
2021/10/12 03:54:55;;;;;;;15.20;13.80;;;;;;;10.25;100.00;96766.69;5034682;28;20175;-57
2021/10/12 03:57:25;;;;;;;15.67;14.17;;;;;;;10.53;100.00;96751.94;5039877;28;20069;-58
2021/10/12 03:59:53;;;;;;;15.85;14.35;;;;;;;10.57;100.00;96751.53;5027968;28;20091;-57
2021/10/12 04:02:22;;;;;;;16.80;15.10;;;;;;;10.39;100.00;96746.09;5022009;28;20073;-57
2021/10/12 04:04:50;;;;;;;17.20;15.40;;;;;;;10.42;100.00;96744.97;5045908;28;20079;-57
2021/10/12 04:07:19;;;;;;;17.03;15.23;;;;;;;10.14;100.00;96750.03;5031808;28;20065;-55
2021/10/12 04:09:47;;;;;;;17.17;15.37;;;;;;;10.45;100.00;96744.72;5030053;28;20069;-58
2021/10/12 04:12:16;;;;;;;16.73;15.03;;;;;;;10.46;100.00;96746.41;5029527;28;20100;-60
2021/10/12 04:14:46;;;;;;;17.27;15.47;;;;;;;10.45;100.00;96739.44;5025318;28;20077;-57
2021/10/12 04:17:14;;;;;;;16.88;15.18;;;;;;;10.64;100.00;96741.28;5047942;28;20072;-58
2021/10/12 04:19:43;;;;;;;17.07;15.27;;;;;;;11.02;100.00;96729.88;5054955;28;20061;-57
2021/10/12 04:22:11;;;;;;;17.37;15.47;;;;;;;10.78;100.00;96732.13;5038475;28;20066;-56
2021/10/12 04:24:40;;;;;;;17.47;15.50;;;;;;;10.60;100.00;96727.53;5021098;28;20061;-55
2021/10/12 04:27:08;;;;;;;18.20;15.80;;;;;;;10.76;100.00;96721.69;5022813;28;20115;-59
2021/10/12 04:29:37;;;;;;;18.23;15.70;;;;;;;10.50;100.00;96717.94;5031978;28;20081;-55
2021/10/12 04:32:10;;;;;;;19.10;15.73;;;;;;;10.80;100.00;96714.31;5037044;28;20076;-57
2021/10/12 04:34:38;;;;;;;20.63;16.30;;;;;;;10.82;100.00;96710.59;5038067;28;20547;-58
2021/10/12 04:37:07;;;;;;;19.40;16.00;;;;;;;10.73;100.00;96708.78;5028738;28;20065;-57
2021/10/12 04:39:35;;;;;;;18.23;15.83;;;;;;;10.26;100.00;96715.72;5024334;28;20073;-58
2021/10/12 04:42:05;;;;;;;17.93;15.63;;;;;;;10.48;100.00;96712.81;5022021;28;20103;-57
2021/10/12 04:44:34;;;;;;;17.77;15.73;;;;;;;10.40;100.00;96721.41;5032500;28;20080;-55
2021/10/12 04:47:03;;;;;;;18.30;15.53;;;;;;;10.40;100.00;96707.41;5045598;28;20071;-57
2021/10/12 04:49:33;;;;;;;19.40;15.87;;;;;;;10.61;100.00;96716.00;5029179;28;20579;-57
2021/10/12 04:52:01;;;;;;;18.45;15.98;;;;;;;10.64;100.00;96710.47;5024942;28;20586;-58
2021/10/12 04:54:30;;;;;;;19.57;16.03;;;;;;;10.58;100.00;96708.38;5035377;28;20066;-58
2021/10/12 04:56:58;;;;;;;20.27;16.27;;;;;;;10.54;100.00;96711.44;5051378;28;20088;-56
2021/10/12 04:59:27;;;;;;;20.20;16.07;;;;;;;10.43;100.00;96717.66;5046290;28;20064;-58
2021/10/12 05:01:55;;;;;;;18.60;15.77;;;;;;;10.49;100.00;96713.63;5027231;28;20074;-56
2021/10/12 05:04:24;;;;;;;18.47;15.70;;;;;;;10.38;100.00;96707.50;5037275;28;20052;-58
2021/10/12 05:06:54;;;;;;;18.93;15.77;;;;;;;10.55;100.00;96713.09;5048122;28;20636;-60
2021/10/12 05:09:22;;;;;;;19.85;16.25;;;;;;;10.89;100.00;96710.84;5041895;28;20057;-58
2021/10/12 05:11:51;;;;;;;20.57;16.07;;;;;;;10.59;100.00;96715.28;5031236;28;20077;-59
2021/10/12 05:14:19;;;;;;;21.43;16.47;;;;;;;10.79;100.00;96718.78;5040591;28;21583;-58
2021/10/12 05:16:50;;;;;;;21.70;16.37;;;;;;;10.63;100.00;96722.00;5037309;28;20080;-55
2021/10/12 05:19:18;;;;;;;20.95;16.35;;;;;;;10.35;100.00;96725.41;5049786;28;20376;-59
2021/10/12 05:21:48;;;;;;;21.77;16.57;;;;;;;10.52;100.00;96729.19;5047192;28;20072;-58
2021/10/12 05:24:18;;;;;;;20.92;16.35;;;;;;;10.57;100.00;96727.81;5041035;28;20511;-56
2021/10/12 05:26:46;;;;;;;21.27;16.25;;;;;;;10.47;100.00;96734.03;5043488;28;20100;-59
2021/10/12 05:29:15;;;;;;;22.03;16.53;;;;;;;10.37;100.00;96721.69;5047684;28;20566;-57
2021/10/12 05:31:43;;;;;;;22.20;16.70;;;;;;;10.60;100.00;96724.91;5045677;28;20075;-56
2021/10/12 05:34:12;;;;;;;22.37;16.63;;;;;;;10.74;100.00;96712.28;5034927;28;20159;-57
2021/10/12 05:36:41;;;;;;;23.30;16.93;;;;;;;10.80;100.00;96709.06;5052028;28;20072;-60
2021/10/12 05:39:10;;;;;;;23.90;17.07;;;;;;;10.69;100.00;96716.13;5041284;28;20087;-55
2021/10/12 05:41:39;;;;;;;24.60;17.40;;;;;;;10.52;100.00;96714.19;5030341;28;20081;-58
2021/10/12 05:44:08;;;;;;;23.58;16.92;;;;;;;10.73;100.00;96708.78;5034332;28;20069;-57
2021/10/12 05:46:36;;;;;;;24.80;17.47;;;;;;;10.72;100.00;96707.13;5044320;28;20079;-58
2021/10/12 05:49:05;;;;;;;24.53;17.20;;;;;;;10.83;100.00;96704.31;5038708;28;20520;-58
2021/10/12 05:51:33;;;;;;;23.93;17.03;;;;;;;10.84;100.00;96707.78;5045752;28;20430;-56
2021/10/12 05:54:02;;;;;;;23.90;16.97;;;;;;;10.84;100.00;96703.38;5013714;28;20563;-54
2021/10/12 05:56:39;;;;;;;23.83;16.93;;;;;;;10.63;100.00;96698.25;5029746;28;20080;-57
2021/10/12 05:59:08;;;;;;;23.90;17.00;;;;;;;10.86;100.00;96698.78;5024013;28;20065;-59
2021/10/12 06:01:40;;;;;;;22.88;16.63;;;;;;;10.68;100.00;96703.09;5036172;28;20076;-57
2021/10/12 06:04:09;;;;;;;24.00;17.07;;;;;;;10.79;100.00;96697.66;5033756;28;20462;-57
2021/10/12 06:06:37;;;;;;;25.10;17.40;;;;;;;11.05;100.00;96694.47;5028285;28;20060;-56
2021/10/12 06:09:08;;;;;;;25.27;17.30;;;;;;;11.02;100.00;96690.28;5026756;28;20643;-59
2021/10/12 06:11:37;;;;;;;25.45;17.40;;;;;;;11.06;100.00;96685.56;5023565;28;20477;-59
2021/10/12 06:14:05;;;;;;;25.70;17.67;;;;;;;11.13;100.00;96687.47;5018704;28;20057;-57
2021/10/12 06:16:35;;;;;;;26.00;17.60;;;;;;;10.78;100.00;96688.09;5031616;28;20072;-56
2021/10/12 06:19:04;;;;;;;25.33;17.73;;;;;;;10.89;100.00;96693.22;5029012;28;20071;-55
2021/10/12 06:21:32;;;;;;;27.00;18.07;;;;;;;10.92;100.00;96689.47;5039509;28;20061;-55
2021/10/12 06:24:00;;;;;;;24.57;17.20;;;;;;;10.85;100.00;96699.75;5031130;28;20081;-49
2021/10/12 06:26:29;;;;;;;23.90;17.00;;;;;;;11.36;100.00;96690.63;5039133;28;21301;-56
2021/10/12 06:28:57;;;;;;;25.30;17.50;;;;;;;11.00;100.00;96697.50;5022105;28;20098;-59
2021/10/12 06:31:31;;;;;;;23.60;16.83;;;;;;;11.29;100.00;96704.56;5020890;28;20069;-57
2021/10/12 06:34:00;;;;;;;;;;;;;;;10.89;100.00;96705.59;5027302;28;20076;-55
2021/10/12 06:36:30;;;;;;;24.00;17.00;;;;;;;11.25;100.00;96706.66;5032856;28;20351;-59
2021/10/12 06:38:59;;;;;;;24.05;17.20;;;;;;;11.03;100.00;96696.41;5048806;28;20680;-57
2021/10/12 06:41:27;;;;;;;25.70;17.70;;;;;;;10.99;100.00;96698.50;5045862;28;20079;-57
2021/10/12 06:44:14;;;;;;;25.07;17.50;;;;;;;10.80;100.00;96704.59;5045891;28;20079;-55
2021/10/12 06:46:42;;;;;;;27.27;18.03;;;;;;;10.98;100.00;96698.59;5046696;28;20590;-57
2021/10/12 06:49:12;;;;;;;28.10;18.40;;;;;;;11.09;100.00;96706.41;5046286;28;20079;-58
2021/10/12 06:51:42;;;;;;;27.45;18.38;;;;;;;11.15;100.00;96701.38;5052294;28;20103;-57
2021/10/12 06:54:18;;;;;;;29.47;19.13;;;;;;;11.40;100.00;96704.38;5046569;28;20084;-54
2021/10/12 06:56:48;;;;;;;29.10;18.90;;;;;;;11.47;100.00;96707.28;5041822;28;20081;-53
2021/10/12 06:59:17;;;;;;;28.92;19.17;;;;;;;11.40;100.00;96699.91;5044251;28;20056;-59
2021/10/12 07:01:45;;;;;;;29.80;19.33;;;;;;;11.68;100.00;96699.13;5031998;28;20072;-59
2021/10/12 07:04:15;;;;;;;29.83;19.20;;;;;;;11.77;100.00;96700.91;5030506;28;20076;-57
2021/10/12 07:06:44;;;;;;;30.02;19.52;;;;;;;11.30;100.00;96700.94;5043741;28;20523;-59
2021/10/12 07:09:14;;;;;;;30.60;19.70;;;;;;;11.69;100.00;96701.63;5038604;28;20123;-59
2021/10/12 07:11:43;;;;;;;30.25;19.45;;;;;;;11.55;100.00;96705.56;5045226;28;20080;-57
2021/10/12 07:14:11;;;;;;;30.50;19.70;;;;;;;11.31;100.00;96697.31;5026134;28;20069;-60
2021/10/12 07:16:40;;;;;;;30.87;19.63;;;;;;;11.50;100.00;96699.06;5034096;28;20088;-59
2021/10/12 07:19:09;;;;;;;27.80;18.53;;;;;;;11.11;100.00;96700.00;5026917;28;20053;-57
2021/10/12 07:21:38;;;;;;;27.27;18.20;;;;;;;12.06;100.00;96701.59;5038438;28;20079;-55
2021/10/12 07:24:07;;;;;;;26.85;18.35;;;;;;;11.31;100.00;96697.31;5037008;28;20069;-56
2021/10/12 07:26:35;;;;;;;27.00;18.20;;;;;;;11.78;100.00;96692.81;5033539;28;20073;-59
2021/10/12 07:29:05;;;;;;;26.93;18.13;;;;;;;11.57;100.00;96698.34;5024259;28;20092;-57
2021/10/12 07:31:33;;;;;;;27.57;18.33;;;;;;;11.70;100.00;96700.66;5025384;28;20069;-57
2021/10/12 07:34:02;;;;;;;28.70;18.90;;;;;;;11.55;100.00;96695.00;5020136;28;20523;-59
2021/10/12 07:36:31;;;;;;;28.93;18.70;;;;;;;11.36;100.00;96705.66;5040751;28;20059;-55
2021/10/12 07:39:00;;;;;;;24.23;17.07;;;;;;;11.20;100.00;96710.69;5047560;28;20068;-60
2021/10/12 07:41:29;;;;;;;23.17;16.95;;;;;;;11.48;100.00;96708.94;5040074;28;21335;-55
2021/10/12 07:43:58;;;;;;;24.80;17.40;;;;;;;11.61;100.00;96702.34;5035480;28;20073;-60
2021/10/12 07:46:27;;;;;;;24.57;17.23;;;;;;;11.32;100.00;96704.25;5025138;28;20077;-60
2021/10/12 07:48:58;;;;;;;24.47;17.20;;;;;;;11.22;100.00;96706.06;5025051;28;20069;-52
2021/10/12 07:51:41;;;;;;;24.80;17.37;;;;;;;11.21;100.00;96699.13;5013913;28;20076;-59
2021/10/12 07:54:16;;;;;;;22.87;16.57;;;;;;;11.52;100.00;96695.28;5020294;28;20080;-56
2021/10/12 07:56:44;;;;;;;22.27;16.47;;;;;;;11.25;100.00;96705.78;5044334;28;20067;-59
2021/10/12 07:59:13;;;;;;;22.13;16.37;;;;;;;11.32;100.00;96702.47;5018821;28;20517;-56
2021/10/12 08:01:41;;;;;;;23.20;16.73;;;;;;;11.43;100.00;96697.97;5029585;28;20106;-60
2021/10/12 08:04:11;;;;;;;24.07;17.03;;;;;;;11.36;100.00;96698.56;5038402;28;20540;-58
2021/10/12 08:06:39;;;;;;;22.37;16.37;;;;;;;11.38;100.00;96701.03;5036870;28;20053;-57
2021/10/12 08:09:08;;;;;;;23.00;16.70;;;;;;;11.43;100.00;96701.44;5023044;28;20093;-61
2021/10/12 08:11:38;;;;;;;23.50;16.77;;;;;;;11.35;100.00;96694.22;5030878;28;20116;-58
2021/10/12 08:14:08;;;;;;;22.48;16.88;;;;;;;11.09;100.00;96694.03;5045087;28;20128;-56
2021/10/12 08:16:43;;;;;;;23.10;16.80;;;;;;;11.16;100.00;96697.75;5046330;28;20065;-60
2021/10/12 08:19:11;;;;;;;22.73;16.70;;;;;;;11.07;100.00;96701.25;5042547;28;20055;-56
2021/10/12 08:21:40;;;;;;;23.67;16.93;;;;;;;10.86;100.00;96693.50;5050942;28;20065;-56
2021/10/12 08:24:08;;;;;;;24.17;17.10;;;;;;;11.05;100.00;96692.66;5040135;28;20614;-58
2021/10/12 08:26:39;;;;;;;24.43;17.33;;;;;;;10.77;100.00;96688.22;5050609;28;20072;-57
2021/10/12 08:29:08;;;;;;;24.53;17.23;;;;;;;11.34;100.00;96687.28;5038437;28;20446;-58
2021/10/12 08:31:36;;;;;;;25.77;17.83;;;;;;;11.39;100.00;96682.44;5037206;28;20579;-60
2021/10/12 08:34:05;;;;;;;26.30;17.90;;;;;;;11.48;100.00;96685.16;5046456;28;20056;-58
2021/10/12 08:36:38;;;;;;;27.20;18.30;;;;;;;11.66;100.00;96683.41;5046254;28;20060;-57
2021/10/12 08:39:07;;;;;;;26.03;17.63;;;;;;;11.32;100.00;96680.47;5041964;28;20073;-59
2021/10/12 08:41:43;;;;;;;26.63;18.13;;;;;;;11.56;100.00;96672.91;5043502;28;20064;-59
2021/10/12 08:44:11;;;;;;;26.53;17.93;;;;;;;11.66;100.00;96670.19;5041820;28;20064;-57
2021/10/12 08:46:41;;;;;;;29.80;19.23;;;;;;;11.40;100.00;96676.16;5054213;28;20075;-59
2021/10/12 08:49:11;;;;;;;28.58;18.90;;;;;;;11.40;100.00;96675.31;5039623;28;20076;-59
2021/10/12 08:51:43;;;;;;;28.00;18.63;;;;;;;10.89;100.00;96679.19;5045583;28;20060;-59
2021/10/12 08:54:16;;;;;;;28.87;19.17;;;;;;;11.10;100.00;96684.31;5046190;28;20502;-60
2021/10/12 08:56:46;;;;;;;29.00;18.97;;;;;;;10.69;100.00;96671.28;5055175;28;20083;-59
2021/10/12 08:59:15;;;;;;;28.40;18.85;;;;;;;10.56;100.00;96681.28;5048405;28;20068;-57
2021/10/12 09:01:57;;;;;;;29.67;19.33;;;;;;;10.78;100.00;96682.00;5044782;28;20065;-59
2021/10/12 09:04:31;;;;;;;29.67;19.17;;;;;;;10.64;100.00;96689.34;5046584;28;20064;-60
2021/10/12 09:06:59;;;;;;;29.13;18.93;;;;;;;10.79;100.00;96678.38;5036918;28;20448;-58
2021/10/12 09:09:35;;;;;;;29.67;19.03;;;;;;;10.57;100.00;96680.34;5028167;28;20064;-59
2021/10/12 09:12:05;;;;;;;29.60;19.10;;;;;;;10.96;100.00;96677.66;5014586;28;20466;-59
2021/10/12 09:14:59;;;;;;;29.10;18.95;;;;;;;11.11;100.00;96683.31;5032883;28;20072;-57
2021/10/12 09:17:32;;;;;;;31.07;19.60;;;;;;;11.45;100.00;96675.72;5029924;28;20209;-56
2021/10/12 09:20:03;;;;;;;31.77;20.10;;;;;;;11.51;100.00;96669.03;5048083;28;20056;-58
2021/10/12 09:22:31;;;;;;;31.85;20.58;;;;;;;11.79;100.00;96668.06;5044576;28;20566;-59
2021/10/12 09:25:07;;;;;;;32.10;20.27;;;;;;;12.21;100.00;96664.09;5043822;28;20068;-58
2021/10/12 09:27:53;;;;;;;33.07;20.40;;;;;;;11.85;100.00;96659.59;5047799;28;20056;-59
2021/10/12 09:30:28;;;;;;;31.60;20.00;;;;;;;11.83;100.00;96663.31;5037495;28;20071;-59
2021/10/12 09:33:01;;;;;;;31.73;19.97;;;;;;;11.72;100.00;96666.97;5032856;28;20073;-57
2021/10/12 09:35:30;;;;;;;32.63;20.43;;;;;;;11.59;100.00;96669.94;5034907;28;20465;-59
2021/10/12 09:38:06;;;;;;;33.00;20.50;;;;;;;11.75;100.00;96660.59;5039270;28;20458;-60
2021/10/12 09:40:38;;;;;;;29.53;19.07;;;;;;;11.70;100.00;96658.38;5041728;28;20465;-59
2021/10/12 09:43:08;;;;;;;29.83;19.27;;;;;;;11.57;100.00;96658.72;5041471;28;20057;-59
2021/10/12 09:45:38;;;;;;;30.75;19.70;;;;;;;11.90;100.00;96651.19;5044579;28;20061;-57
2021/10/12 09:48:28;;;;;;;30.50;19.63;;;;;;;12.19;100.00;96640.47;5040650;28;20069;-63
2021/10/12 09:51:08;;;;;;;30.88;19.75;;;;;;;12.30;100.00;96639.41;5044780;28;20077;-60
2021/10/12 09:53:36;;;;;;;32.00;20.10;;;;;;;12.31;100.00;96649.00;5022154;28;20520;-59
2021/10/12 09:56:06;;;;;;;33.53;20.70;;;;;;;12.61;100.00;96642.47;5046491;28;20084;-58
2021/10/12 09:58:37;;;;;;;32.65;20.45;;;;;;;11.99;100.00;96634.47;5038630;28;20065;-59
2021/10/12 10:01:06;;;;;;;;;;;;;;;12.02;100.00;96635.97;5029522;28;20449;-59
2021/10/12 10:03:35;;;;;;;32.10;20.50;;;;;;;11.98;100.00;96635.44;5039876;28;19961;-58
2021/10/12 10:06:05;;;;;;;33.97;21.00;;;;;;;12.57;100.00;96626.09;5024595;28;20081;-56
2021/10/12 10:08:37;;;;;;;31.27;20.02;;;;;;;13.12;100.00;96621.53;5032941;28;20509;-60
2021/10/12 10:11:27;;;;;;;32.80;20.60;;;;;;;12.65;100.00;96619.19;5023613;28;20099;-57
2021/10/12 10:13:58;;;;;;;30.52;19.90;;;;;;;12.66;100.00;96611.09;5026897;28;20065;-56
2021/10/12 10:16:27;;;;;;;32.67;20.67;;;;;;;12.38;100.00;96604.25;5014528;28;20543;-59
2021/10/12 10:18:56;;;;;;;32.90;20.93;;;;;;;12.36;100.00;96601.78;5026851;28;20060;-57
2021/10/12 10:21:24;;;;;;;33.67;20.97;;;;;;;12.75;100.00;96601.41;5024420;28;20068;-59
2021/10/12 10:23:57;;;;;;;34.97;21.57;;;;;;;12.76;100.00;96590.66;5047674;28;20519;-59
2021/10/12 10:26:28;;;;;;;34.87;21.20;;;;;;;12.94;100.00;96590.63;5041573;28;20065;-59
2021/10/12 10:29:19;;;;;;;34.20;20.93;;;;;;;12.65;100.00;96580.34;5035946;28;20072;-60
2021/10/12 10:31:51;;;;;;;32.93;20.33;;;;;;;12.99;100.00;96577.75;5046544;28;20057;-58
2021/10/12 10:34:34;;;;;;;32.93;20.67;;;;;;;13.02;100.00;96572.16;5018444;28;20065;-59
2021/10/12 10:37:33;;;;;;;33.97;21.17;;;;;;;12.73;100.00;96569.84;5032908;28;20076;-59
2021/10/12 10:40:34;;;;;;;34.03;20.83;;;;;;;13.68;100.00;96551.25;5015653;28;20065;-58
2021/10/12 10:43:03;;;;;;;34.40;21.13;;;;;;;13.29;100.00;96557.09;5025613;28;20065;-58
2021/10/12 10:45:46;;;;;;;35.23;21.23;;;;;;;13.59;100.00;96546.91;5027726;28;20056;-57
2021/10/12 10:48:17;;;;;;;34.73;21.23;;;;;;;13.16;100.00;96551.38;5051484;28;20071;-56
2021/10/12 10:51:20;;;;;;;33.33;20.88;;;;;;;12.47;100.00;96546.00;5042066;28;20088;-59
2021/10/12 10:53:49;;;;;;;34.93;20.93;;;;;;;13.48;100.00;96546.22;5047514;28;20069;-56
2021/10/12 10:56:17;;;;;;;34.20;21.10;;;;;;;13.25;100.00;96546.00;5036631;28;20068;-59
2021/10/12 10:58:46;;;;;;;34.47;20.97;;;;;;;13.34;100.00;96538.06;5027052;28;20069;-57
2021/10/12 11:01:36;;;;;;;34.50;21.10;;;;;;;12.79;100.00;96537.44;5022226;28;20069;-59
2021/10/12 11:04:05;;;;;;;33.83;20.93;;;;;;;12.77;100.00;96535.94;5019706;28;20528;-57
2021/10/12 11:07:00;;;;;;;35.03;21.20;;;;;;;12.58;100.00;96529.84;5029180;28;20509;-57
2021/10/12 11:09:28;;;;;;;34.73;21.17;;;;;;;12.96;100.00;96524.28;5044736;28;20057;-58
2021/10/12 11:11:57;;;;;;;36.40;21.70;;;;;;;12.82;100.00;96523.88;5046834;28;20088;-59
2021/10/12 11:14:30;;;;;;;32.63;20.47;;;;;;;13.26;100.00;96518.50;5026343;28;20077;-57
2021/10/12 11:17:10;;;;;;;34.03;21.03;;;;;;;13.44;100.00;96515.75;5028557;28;20068;-57
2021/10/12 11:19:53;;;;;;;31.42;20.45;;;;;;;13.30;100.00;96503.13;5033050;28;20154;-57
2021/10/12 11:22:21;;;;;;;31.60;20.47;;;;;;;13.77;100.00;96505.25;5037896;28;20079;-60
2021/10/12 11:24:50;;;;;;;31.90;20.27;;;;;;;13.12;100.00;96500.53;5042705;28;20068;-59
2021/10/12 11:27:41;;;;;;;32.67;20.60;;;;;;;13.78;100.00;96496.28;5033758;28;20054;-53